createdAt,value
2022-12-23T00:00:57.582Z,4.04
2022-12-23T00:03:26.691Z,4.08
2022-12-23T00:05:54.699Z,4.09
2022-12-23T00:08:24.417Z,4.12
2022-12-23T00:10:54.675Z,4.23
2022-12-23T00:13:41.398Z,4.13
2022-12-23T00:16:12.838Z,4.14
2022-12-23T00:18:41.243Z,4.13
2022-12-23T00:21:12.347Z,4.12
2022-12-23T00:23:42.518Z,4.13
2022-12-23T00:26:25.348Z,4.17
2022-12-23T00:28:57.521Z,4.16
2022-12-23T00:33:06.260Z,4.18
2022-12-23T00:36:03.235Z,4.22
2022-12-23T00:38:49.369Z,4.24
2022-12-23T00:41:37.792Z,4.25
2022-12-23T00:44:05.830Z,4.27
2022-12-23T00:46:33.399Z,4.32
2022-12-23T00:49:19.958Z,4.33
2022-12-23T00:51:47.752Z,4.29
2022-12-23T00:54:16.236Z,4.27
2022-12-23T00:56:43.784Z,4.25
2022-12-23T00:59:11.506Z,4.27
2022-12-23T01:01:57.915Z,4.25
2022-12-23T01:04:44.191Z,4.20
2022-12-23T01:07:11.865Z,4.20
2022-12-23T01:09:39.541Z,4.22
2022-12-23T01:12:07.670Z,4.26
2022-12-23T01:14:35.769Z,4.27
2022-12-23T01:17:03.880Z,4.31
2022-12-23T01:19:32.989Z,4.34
2022-12-23T01:22:00.533Z,4.28
2022-12-23T01:24:29.914Z,4.27
2022-12-23T01:26:58.179Z,4.29
2022-12-23T01:29:26.305Z,4.34
2022-12-23T01:31:53.913Z,4.32
2022-12-23T01:34:21.659Z,4.33
2022-12-23T01:36:49.282Z,4.35
2022-12-23T01:39:17.830Z,4.30
2022-12-23T01:42:03.679Z,4.33
2022-12-23T01:45:00.884Z,4.34
2022-12-23T01:47:34.016Z,4.43
2022-12-23T01:50:04.437Z,4.47
2022-12-23T01:52:39.053Z,4.47
2022-12-23T01:55:07.632Z,4.43
2022-12-23T01:57:39.003Z,4.41
2022-12-23T02:00:28.134Z,4.38
2022-12-23T02:03:14.223Z,4.39
2022-12-23T02:05:45.341Z,4.41
2022-12-23T02:08:34.676Z,4.43
2022-12-23T02:11:39.763Z,4.37
2022-12-23T02:14:54.059Z,4.34
2022-12-23T02:17:30.547Z,4.43
2022-12-23T02:20:19.809Z,4.44
2022-12-23T02:23:24.860Z,4.48
2022-12-23T02:25:52.712Z,4.58
2022-12-23T02:29:05.264Z,4.57
2022-12-23T02:31:54.440Z,4.57
2022-12-23T02:34:32.678Z,4.53
2022-12-23T02:37:21.982Z,4.59
2022-12-23T02:40:20.405Z,4.50
2022-12-23T02:42:53.308Z,4.49
2022-12-23T02:45:26.026Z,4.42
2022-12-23T02:48:02.155Z,4.43
2022-12-23T02:50:37.272Z,4.43
2022-12-23T02:53:14.446Z,4.42
2022-12-23T02:55:45.590Z,4.44
2022-12-23T02:58:18.224Z,4.45
2022-12-23T03:00:47.901Z,4.41
2022-12-23T03:03:17.213Z,4.39
2022-12-23T03:05:47.211Z,4.41
2022-12-23T03:08:20.873Z,4.42
2022-12-23T03:11:04.998Z,4.42
2022-12-23T03:13:38.617Z,4.41
2022-12-23T03:16:23.291Z,4.44
2022-12-23T03:18:56.587Z,4.43
2022-12-23T03:21:47.227Z,4.39
2022-12-23T03:24:23.026Z,4.40
2022-12-23T03:27:12.480Z,4.38
2022-12-23T03:29:54.024Z,4.37
2022-12-23T03:32:23.277Z,4.34
2022-12-23T03:34:54.655Z,4.41
2022-12-23T03:37:24.935Z,4.46
2022-12-23T03:39:58.908Z,4.47
2022-12-23T03:42:31.968Z,4.40
2022-12-23T03:47:58.690Z,4.46
2022-12-23T03:50:28.763Z,4.39
2022-12-23T03:53:01.342Z,4.46
2022-12-23T03:55:36.947Z,4.51
2022-12-23T03:58:14.566Z,4.54
2022-12-23T04:00:59.025Z,4.57
2022-12-23T04:03:44.960Z,4.57
2022-12-23T04:06:17.834Z,4.60
2022-12-23T04:08:48.319Z,4.62
2022-12-23T04:11:16.777Z,4.57
2022-12-23T04:13:44.290Z,4.60
2022-12-23T04:16:12.185Z,4.62
2022-12-23T04:18:39.836Z,4.60
2022-12-23T04:21:07.401Z,4.58
2022-12-23T04:23:34.961Z,4.57
2022-12-23T04:26:02.512Z,4.62
2022-12-23T04:28:30.279Z,4.58
2022-12-23T04:30:58.091Z,4.60
2022-12-23T04:33:25.726Z,4.65
2022-12-23T04:35:53.344Z,4.62
2022-12-23T04:38:20.916Z,4.63
2022-12-23T04:40:48.486Z,4.69
2022-12-23T04:43:16.180Z,4.76
2022-12-23T04:45:43.727Z,4.72
2022-12-23T04:48:11.448Z,4.76
2022-12-23T04:50:39.493Z,4.74
2022-12-23T04:53:07.068Z,4.69
2022-12-23T04:55:37.120Z,4.75
2022-12-23T04:58:04.759Z,4.74
2022-12-23T05:00:38.935Z,4.70
2022-12-23T05:03:07.424Z,4.69
2022-12-23T05:05:35.158Z,4.73
2022-12-23T05:08:05.330Z,4.79
2022-12-23T05:10:32.994Z,4.85
2022-12-23T05:13:00.580Z,4.84
2022-12-23T05:15:28.192Z,4.88
2022-12-23T05:18:02.387Z,4.89
2022-12-23T05:20:30.067Z,4.97
2022-12-23T05:22:57.648Z,4.99
2022-12-23T05:25:26.338Z,5.04
2022-12-23T05:27:53.872Z,5.03
2022-12-23T05:30:21.390Z,4.97
2022-12-23T05:32:54.813Z,5.03
2022-12-23T05:35:26.746Z,5.05
2022-12-23T05:37:54.498Z,5.08
2022-12-23T05:40:26.878Z,5.06
2022-12-23T05:42:59.453Z,5.08
2022-12-23T05:45:27.034Z,5.06
2022-12-23T05:47:54.631Z,5.11
2022-12-23T05:50:22.278Z,5.11
2022-12-23T05:52:50.065Z,5.22
2022-12-23T05:55:17.935Z,5.21
2022-12-23T05:57:45.509Z,5.22
2022-12-23T06:00:15.746Z,5.28
2022-12-23T06:02:47.229Z,5.25
2022-12-23T06:05:18.036Z,5.25
2022-12-23T06:07:46.555Z,5.22
2022-12-23T06:10:14.263Z,5.28
2022-12-23T06:12:41.910Z,5.34
2022-12-23T06:15:10.247Z,5.38
2022-12-23T06:17:38.549Z,5.42
2022-12-23T06:20:06.954Z,5.41
2022-12-23T06:22:34.633Z,5.40
2022-12-23T06:25:02.277Z,5.35
2022-12-23T06:27:30.308Z,5.35
2022-12-23T06:29:58.027Z,5.39
2022-12-23T06:32:25.706Z,5.38
2022-12-23T06:34:53.740Z,5.41
2022-12-23T06:37:22.262Z,5.43
2022-12-23T06:39:49.898Z,5.48
2022-12-23T06:42:17.550Z,5.49
2022-12-23T06:44:45.106Z,5.55
2022-12-23T06:47:12.660Z,5.59
2022-12-23T06:49:40.319Z,5.66
2022-12-23T06:52:08.006Z,5.66
2022-12-23T06:54:35.596Z,5.68
2022-12-23T06:57:03.143Z,5.77
2022-12-23T06:59:31.651Z,5.82
2022-12-23T07:01:59.412Z,5.86
2022-12-23T07:04:28.549Z,5.93
2022-12-23T07:06:56.213Z,5.98
2022-12-23T07:09:24.203Z,6.02
2022-12-23T07:11:52.472Z,6.13
2022-12-23T07:14:20.026Z,6.11
2022-12-23T07:16:48.306Z,6.10
2022-12-23T07:19:18.664Z,6.12
2022-12-23T07:21:46.180Z,6.14
2022-12-23T07:24:14.189Z,6.15
2022-12-23T07:26:41.696Z,6.15
2022-12-23T07:29:10.064Z,6.17
2022-12-23T07:31:40.921Z,6.14
2022-12-23T07:34:09.639Z,6.14
2022-12-23T07:36:37.764Z,6.16
2022-12-23T07:39:05.698Z,6.21
2022-12-23T07:41:33.352Z,6.22
2022-12-23T07:44:08.685Z,6.25
2022-12-23T07:46:37.006Z,6.24
2022-12-23T07:49:05.305Z,6.29
2022-12-23T07:51:33.697Z,6.33
2022-12-23T07:54:01.203Z,6.27
2022-12-23T07:56:28.817Z,6.21
2022-12-23T07:58:56.476Z,6.26
2022-12-23T08:01:24.464Z,6.28
2022-12-23T08:03:52.198Z,6.30
2022-12-23T08:06:19.825Z,6.26
2022-12-23T08:08:47.449Z,6.29
2022-12-23T08:11:16.323Z,6.30
2022-12-23T08:13:48.339Z,6.30
2022-12-23T08:16:15.989Z,6.35
2022-12-23T08:18:44.630Z,6.32
2022-12-23T08:21:14.971Z,6.30
2022-12-23T08:23:43.715Z,6.36
2022-12-23T08:26:17.426Z,6.33
2022-12-23T08:28:45.821Z,6.34
2022-12-23T08:31:21.416Z,6.41
2022-12-23T08:33:51.662Z,6.45
2022-12-23T08:36:24.801Z,6.45
2022-12-23T08:38:54.686Z,6.47
2022-12-23T08:41:24.383Z,6.49
2022-12-23T08:43:52.524Z,6.55
2022-12-23T08:46:21.005Z,6.51
2022-12-23T08:48:49.740Z,6.41
2022-12-23T08:51:19.754Z,6.45
2022-12-23T08:53:49.090Z,6.49
2022-12-23T08:56:21.585Z,6.50
2022-12-23T08:58:52.793Z,6.46
2022-12-23T09:01:23.668Z,6.45
2022-12-23T09:03:52.456Z,6.49
2022-12-23T09:06:29.659Z,6.51
2022-12-23T09:08:58.973Z,6.48
2022-12-23T09:11:29.097Z,6.47
2022-12-23T09:13:58.632Z,6.53
2022-12-23T09:16:26.716Z,6.56
2022-12-23T09:18:54.330Z,6.63
2022-12-23T09:21:23.740Z,6.63
2022-12-23T09:23:52.508Z,6.58
2022-12-23T09:26:23.791Z,6.58
2022-12-23T09:28:52.962Z,6.58
2022-12-23T09:36:54.905Z,6.62
2022-12-23T09:39:31.845Z,6.65
2022-12-23T09:53:08.683Z,6.65
2022-12-23T09:56:00.711Z,6.62
2022-12-23T09:58:38.833Z,6.65
2022-12-23T10:01:06.325Z,6.66
2022-12-23T10:05:10.298Z,6.64
2022-12-23T10:07:50.052Z,6.58
2022-12-23T10:10:27.832Z,6.61
2022-12-23T10:12:58.418Z,6.63
2022-12-23T10:15:29.040Z,6.61
2022-12-23T10:18:01.849Z,6.67
2022-12-23T10:20:37.703Z,6.64
2022-12-23T10:23:16.046Z,6.64
2022-12-23T10:25:52.277Z,6.64
2022-12-23T10:28:20.556Z,6.68
2022-12-23T10:31:31.133Z,6.63
2022-12-23T10:34:05.535Z,6.68
2022-12-23T10:36:55.093Z,6.71
2022-12-23T10:39:36.009Z,6.71
2022-12-23T10:42:51.781Z,6.75
2022-12-23T10:45:32.638Z,6.73
2022-12-23T10:48:23.362Z,6.71
2022-12-23T10:51:45.160Z,6.75
2022-12-23T10:54:20.843Z,6.78
2022-12-23T10:56:48.800Z,6.77
2022-12-23T10:59:23.202Z,6.66
2022-12-23T11:01:56.788Z,6.70
2022-12-23T11:04:36.662Z,6.74
2022-12-23T11:07:42.098Z,6.64
2022-12-23T11:09:58.345Z,6.61
2022-12-23T11:12:42.532Z,6.66
2022-12-23T11:15:30.683Z,6.69
2022-12-23T11:18:11.799Z,6.69
2022-12-23T11:20:44.755Z,6.66
2022-12-23T11:23:36.658Z,6.71
2022-12-23T11:26:08.096Z,6.65
2022-12-23T11:28:48.248Z,6.58
2022-12-23T11:31:24.493Z,6.61
2022-12-23T11:33:58.477Z,6.60
2022-12-23T11:36:28.928Z,6.67
2022-12-23T11:39:14.503Z,6.67
2022-12-23T11:41:54.558Z,6.70
2022-12-23T11:44:41.453Z,6.62
2022-12-23T11:47:30.806Z,6.69
2022-12-23T11:50:01.348Z,6.62
2022-12-23T11:52:30.950Z,6.69
2022-12-23T11:55:01.432Z,6.70
2022-12-23T11:57:45.374Z,6.75
2022-12-23T12:00:39.222Z,6.74
2022-12-23T12:03:14.458Z,6.76
2022-12-23T12:05:51.513Z,6.79
2022-12-23T12:08:27.629Z,6.80
2022-12-23T12:11:21.225Z,6.79
2022-12-23T12:13:57.498Z,6.72
2022-12-23T12:16:31.500Z,6.65
2022-12-23T12:19:10.354Z,6.60
2022-12-23T12:21:39.124Z,6.67
2022-12-23T12:24:19.265Z,6.71
2022-12-23T12:26:54.438Z,6.73
2022-12-23T12:29:32.922Z,6.67
2022-12-23T12:32:02.392Z,6.75
2022-12-23T12:34:41.850Z,6.74
2022-12-23T12:37:12.468Z,6.71
2022-12-23T12:39:49.900Z,6.71
2022-12-23T12:42:30.392Z,6.69
2022-12-23T12:45:34.917Z,6.62
2022-12-23T12:48:29.634Z,6.57
2022-12-23T12:51:12.674Z,6.64
2022-12-23T12:53:52.908Z,6.65
2022-12-23T12:56:30.589Z,6.61
2022-12-23T12:58:58.975Z,6.58
2022-12-23T13:01:46.088Z,6.58
2022-12-23T13:04:22.806Z,6.56
2022-12-23T13:07:08.468Z,6.63
2022-12-23T13:09:57.367Z,6.62
2022-12-23T13:12:44.897Z,6.63
2022-12-23T13:15:20.853Z,6.64
2022-12-23T13:18:01.968Z,6.60
2022-12-23T13:20:46.197Z,6.61
2022-12-23T13:23:42.782Z,6.59
2022-12-23T13:26:38.132Z,6.59
2022-12-23T13:29:25.224Z,6.55
2022-12-23T13:31:58.905Z,6.54
2022-12-23T13:34:38.245Z,6.52
2022-12-23T13:37:29.161Z,6.58
2022-12-23T13:40:22.621Z,6.57
2022-12-23T13:42:56.243Z,6.56
2022-12-23T13:45:31.888Z,6.56
2022-12-23T13:48:17.958Z,6.52
2022-12-23T13:51:15.222Z,6.50
2022-12-23T13:53:59.329Z,6.51
2022-12-23T13:56:42.271Z,6.54
2022-12-23T13:59:12.619Z,6.48
2022-12-23T14:01:49.832Z,6.47
2022-12-23T14:04:38.252Z,6.47
2022-12-23T14:07:21.939Z,6.46
2022-12-23T14:09:55.109Z,6.44
2022-12-23T14:12:30.905Z,6.46
2022-12-23T14:15:26.475Z,6.46
2022-12-23T14:18:04.952Z,6.42
2022-12-23T14:20:36.401Z,6.42
2022-12-23T14:23:42.750Z,6.42
2022-12-23T14:26:48.040Z,6.49
2022-12-23T14:29:30.779Z,6.51
2022-12-23T14:31:58.732Z,6.50
2022-12-23T14:34:32.606Z,6.47
2022-12-23T14:37:25.630Z,6.52
2022-12-23T14:39:53.785Z,6.49
2022-12-23T14:42:34.713Z,6.48
2022-12-23T14:45:34.907Z,6.50
2022-12-23T14:48:34.765Z,6.50
2022-12-23T14:51:03.628Z,6.42
2022-12-23T14:53:34.143Z,6.44
2022-12-23T14:56:19.714Z,6.46
2022-12-23T14:59:04.073Z,6.44
2022-12-23T15:01:38.924Z,6.39
2022-12-23T15:04:14.612Z,6.35
2022-12-23T15:06:46.105Z,6.39
2022-12-23T15:09:54.544Z,6.37
2022-12-23T15:12:39.613Z,6.37
2022-12-23T15:15:19.057Z,6.34
2022-12-23T15:17:47.225Z,6.37
2022-12-23T15:20:21.153Z,6.35
2022-12-23T15:22:52.227Z,6.37
2022-12-23T15:25:28.972Z,6.38
2022-12-23T15:28:01.932Z,6.36
2022-12-23T15:30:35.039Z,6.29
2022-12-23T15:33:34.748Z,6.27
2022-12-23T15:35:57.390Z,6.29
2022-12-23T15:38:29.401Z,6.32
2022-12-23T15:41:02.880Z,6.26
2022-12-23T15:43:31.905Z,6.26
2022-12-23T15:46:30.476Z,6.19
2022-12-23T15:48:58.588Z,6.27
2022-12-23T15:54:30.435Z,6.28
2022-12-23T15:57:00.412Z,6.23
2022-12-23T15:59:32.976Z,6.22
2022-12-23T16:03:00.426Z,6.20
2022-12-23T16:05:29.607Z,6.15
2022-12-23T16:08:16.264Z,6.17
2022-12-23T16:11:05.506Z,6.17
2022-12-23T16:13:34.000Z,6.19
2022-12-23T16:16:40.358Z,6.12
2022-12-23T16:19:37.044Z,6.09
2022-12-23T16:22:14.563Z,6.04
2022-12-23T16:24:48.976Z,6.09
2022-12-23T16:27:19.930Z,6.05
2022-12-23T16:29:48.862Z,6.09
2022-12-23T16:32:18.570Z,6.05
2022-12-23T16:34:50.186Z,6.07
2022-12-23T16:37:17.833Z,6.13
2022-12-23T16:39:45.306Z,6.08
2022-12-23T16:42:12.840Z,6.07
2022-12-23T16:44:40.314Z,6.10
2022-12-23T16:47:16.326Z,6.06
2022-12-23T16:49:44.009Z,6.06
2022-12-23T16:52:14.332Z,6.09
2022-12-23T16:54:42.654Z,6.10
2022-12-23T16:57:10.563Z,6.06
2022-12-23T16:59:41.079Z,6.05
2022-12-23T17:02:23.395Z,6.05
2022-12-23T17:04:51.345Z,6.07
2022-12-23T17:07:18.817Z,5.99
2022-12-23T17:09:46.469Z,5.99
2022-12-23T17:12:14.066Z,6.00
2022-12-23T17:14:41.942Z,6.00
2022-12-23T17:17:15.587Z,6.02
2022-12-23T17:19:43.316Z,6.02
2022-12-23T17:22:13.217Z,5.99
2022-12-23T17:24:40.782Z,6.02
2022-12-23T17:27:13.685Z,6.05
2022-12-23T17:29:41.472Z,6.07
2022-12-23T17:32:15.182Z,6.06
2022-12-23T17:34:43.022Z,6.05
2022-12-23T17:37:19.503Z,6.03
2022-12-23T17:39:47.934Z,6.02
2022-12-23T17:42:25.793Z,5.98
2022-12-23T17:44:54.207Z,5.94
2022-12-23T17:47:22.739Z,5.98
2022-12-23T17:49:51.439Z,5.90
2022-12-23T17:52:22.172Z,5.92
2022-12-23T17:54:51.129Z,5.92
2022-12-23T17:57:22.143Z,5.90
2022-12-23T17:59:51.050Z,5.88
2022-12-23T18:02:25.366Z,5.87
2022-12-23T18:04:53.342Z,5.85
2022-12-23T18:07:21.024Z,5.88
2022-12-23T18:09:50.801Z,5.84
2022-12-23T18:12:38.226Z,5.87
2022-12-23T18:15:14.449Z,5.82
2022-12-23T18:17:42.229Z,5.89
2022-12-23T18:20:15.576Z,5.89
2022-12-23T18:22:43.373Z,5.85
2022-12-23T18:25:24.994Z,5.86
2022-12-23T18:27:54.774Z,5.88
2022-12-23T18:30:22.493Z,5.88
2022-12-23T18:32:50.238Z,5.83
2022-12-23T18:35:28.568Z,5.79
2022-12-23T18:37:56.936Z,5.82
2022-12-23T18:40:30.968Z,5.80
2022-12-23T18:43:00.674Z,5.76
2022-12-23T18:45:37.785Z,5.78
2022-12-23T18:48:08.202Z,5.70
2022-12-23T18:50:38.725Z,5.70
2022-12-23T18:53:08.258Z,5.74
2022-12-23T18:55:36.397Z,5.72
2022-12-23T18:58:04.327Z,5.72
2022-12-23T19:00:33.677Z,5.78
2022-12-23T19:03:01.425Z,5.73
2022-12-23T19:05:33.103Z,5.70
2022-12-23T19:08:00.827Z,5.80
2022-12-23T19:10:32.832Z,5.76
2022-12-23T19:13:00.991Z,5.80
2022-12-23T19:15:28.745Z,5.74
2022-12-23T19:17:56.363Z,5.66
2022-12-23T19:20:24.026Z,5.70
2022-12-23T19:22:51.746Z,5.70
2022-12-23T19:25:19.880Z,5.68
2022-12-23T19:27:48.194Z,5.70
2022-12-23T19:30:18.208Z,5.67
2022-12-23T19:32:46.032Z,5.71
2022-12-23T19:35:14.807Z,5.70
2022-12-23T19:37:43.130Z,5.65
2022-12-23T19:40:11.365Z,5.69
2022-12-23T19:42:39.756Z,5.71
2022-12-23T19:45:09.955Z,5.72
2022-12-23T19:47:38.043Z,5.67
2022-12-23T19:50:06.890Z,5.69
2022-12-23T19:52:34.790Z,5.81
2022-12-23T19:55:02.310Z,5.72
2022-12-23T19:57:30.208Z,5.62
2022-12-23T19:59:57.737Z,5.67
2022-12-23T20:02:25.327Z,5.67
2022-12-23T20:04:52.817Z,5.69
2022-12-23T20:07:20.304Z,5.65
2022-12-23T20:09:48.133Z,5.64
2022-12-23T20:12:16.029Z,5.63
2022-12-23T20:14:43.601Z,5.63
2022-12-23T20:17:11.156Z,5.61
2022-12-23T20:19:45.645Z,5.58
2022-12-23T20:22:13.923Z,5.53
2022-12-23T20:24:41.598Z,5.44
2022-12-23T20:27:11.734Z,5.49
2022-12-23T20:29:40.261Z,5.48
2022-12-23T20:32:07.722Z,5.46
2022-12-23T20:34:39.489Z,5.47
2022-12-23T20:37:08.388Z,5.51
2022-12-23T20:39:35.876Z,5.48
2022-12-23T20:42:03.611Z,5.56
2022-12-23T20:44:35.082Z,5.55
2022-12-23T20:47:05.609Z,5.56
2022-12-23T20:49:33.784Z,5.56
2022-12-23T20:52:01.587Z,5.49
2022-12-23T20:54:33.300Z,5.44
2022-12-23T20:57:02.742Z,5.43
2022-12-23T20:59:30.338Z,5.47
2022-12-23T21:01:59.498Z,5.43
2022-12-23T21:04:28.111Z,5.43
2022-12-23T21:06:55.677Z,5.45
2022-12-23T21:09:23.692Z,5.49
2022-12-23T21:11:51.413Z,5.42
2022-12-23T21:14:19.032Z,5.48
2022-12-23T21:16:46.988Z,5.46
2022-12-23T21:19:17.812Z,5.46
2022-12-23T21:21:46.667Z,5.43
2022-12-23T21:24:15.252Z,5.43
2022-12-23T21:26:42.793Z,5.45
2022-12-23T21:29:11.091Z,5.40
2022-12-23T21:31:40.889Z,5.47
2022-12-23T21:34:08.655Z,5.41
2022-12-23T21:36:38.914Z,5.44
2022-12-23T21:39:10.473Z,5.43
2022-12-23T21:41:41.291Z,5.44
2022-12-23T21:44:13.627Z,5.47
2022-12-23T21:46:41.439Z,5.45
2022-12-23T21:49:09.801Z,5.42
2022-12-23T21:51:40.650Z,5.38
2022-12-23T21:54:12.025Z,5.39
2022-12-23T21:56:40.905Z,5.37
2022-12-23T21:59:12.227Z,5.36
2022-12-23T22:01:40.812Z,5.38
2022-12-23T22:04:11.719Z,5.35
2022-12-23T22:06:43.752Z,5.37
2022-12-23T22:09:17.834Z,5.34
2022-12-23T22:11:47.623Z,5.27
2022-12-23T22:14:17.934Z,5.38
2022-12-23T22:16:45.721Z,5.38
2022-12-23T22:19:13.314Z,5.36
2022-12-23T22:21:42.683Z,5.36
2022-12-23T22:24:11.208Z,5.33
2022-12-23T22:26:39.884Z,5.33
2022-12-23T22:29:07.537Z,5.29
2022-12-23T22:31:41.232Z,5.34
2022-12-23T22:34:13.846Z,5.37
2022-12-23T22:36:41.680Z,5.34
2022-12-23T22:39:17.720Z,5.33
2022-12-23T22:41:52.138Z,5.36
2022-12-23T22:44:21.015Z,5.35
2022-12-23T22:46:48.804Z,5.38
2022-12-23T22:49:16.957Z,5.29
2022-12-23T22:51:45.126Z,5.36
2022-12-23T22:54:14.475Z,5.44
2022-12-23T22:56:45.881Z,5.43
2022-12-23T22:59:20.543Z,5.41
2022-12-23T23:01:49.572Z,5.39
2022-12-23T23:04:17.686Z,5.44
2022-12-23T23:06:45.292Z,5.48
2022-12-23T23:09:15.622Z,5.50
2022-12-23T23:11:44.547Z,5.51
2022-12-23T23:14:12.660Z,5.51
2022-12-23T23:16:40.635Z,5.47
2022-12-23T23:19:09.256Z,5.44
2022-12-23T23:21:37.893Z,5.41
2022-12-23T23:24:05.939Z,5.37
2022-12-23T23:26:34.161Z,5.42
2022-12-23T23:29:01.727Z,5.43
2022-12-23T23:31:45.387Z,5.44
2022-12-23T23:34:13.920Z,5.43
2022-12-23T23:36:42.185Z,5.43
2022-12-23T23:39:12.322Z,5.44
2022-12-23T23:41:41.134Z,5.51
2022-12-23T23:44:09.969Z,5.45
2022-12-23T23:46:38.390Z,5.41
2022-12-23T23:49:06.515Z,5.40
2022-12-23T23:51:34.315Z,5.41
2022-12-23T23:54:02.061Z,5.42
2022-12-23T23:56:37.528Z,5.40
2022-12-23T23:59:05.517Z,5.41
